Ojibwa, Wisconsin
Current Conditions -  °F | °C
As of 10:15 AM on Wednesday 26 Nov 2014 (Local Time) from KRCX Reporting Station
Overcast Overcast  
Wind Chill: -5°   Ceiling: 3600
Heat Index: -5°   Visibility: 10mi
Dew Point: -8°   Wind: 3mph
Humidity: 82%   Direction: 330°NNW
Pressure: 30.17"   Gusts: NA
Location:  45.8°N, 91.12°W
Report Text: KRCX 261615Z AUTO 33003KT 10SM BKN036 OVC044 M05/M08 A3017 RMK AO2 T10511077
Loading
Personal Weather Stations






























Interactive Weather Map New forecast layout! Learn more

10-Day Weather Forecast

Advertisements
Track Severe Weather on mobile